sensor_id;sensor_type;location;lat;lon;timestamp;P1;durP1;ratioP1;P2;durP2;ratioP2
71610;SDS011;59459;51.172;6.682;2023-05-07T00:01:36;7.85;;;3.50;;
71610;SDS011;59459;51.172;6.682;2023-05-07T00:04:02;6.27;;;3.00;;
71610;SDS011;59459;51.172;6.682;2023-05-07T00:06:28;7.72;;;3.22;;
71610;SDS011;59459;51.172;6.682;2023-05-07T00:08:54;8.37;;;3.47;;
71610;SDS011;59459;51.172;6.682;2023-05-07T00:11:19;6.30;;;3.17;;
71610;SDS011;59459;51.172;6.682;2023-05-07T00:13:45;6.73;;;2.70;;
71610;SDS011;59459;51.172;6.682;2023-05-07T00:16:10;7.25;;;3.15;;
71610;SDS011;59459;51.172;6.682;2023-05-07T00:18:36;5.90;;;2.63;;
71610;SDS011;59459;51.172;6.682;2023-05-07T00:21:01;7.20;;;3.00;;
71610;SDS011;59459;51.172;6.682;2023-05-07T00:23:26;6.67;;;3.30;;
71610;SDS011;59459;51.172;6.682;2023-05-07T00:25:51;5.23;;;2.87;;
71610;SDS011;59459;51.172;6.682;2023-05-07T00:28:16;6.93;;;3.10;;
71610;SDS011;59459;51.172;6.682;2023-05-07T00:30:42;6.37;;;2.77;;
71610;SDS011;59459;51.172;6.682;2023-05-07T00:33:07;6.90;;;2.80;;
71610;SDS011;59459;51.172;6.682;2023-05-07T00:35:32;6.00;;;2.80;;
71610;SDS011;59459;51.172;6.682;2023-05-07T00:37:57;5.83;;;2.40;;
71610;SDS011;59459;51.172;6.682;2023-05-07T00:40:22;6.40;;;3.27;;
71610;SDS011;59459;51.172;6.682;2023-05-07T00:42:48;7.63;;;2.93;;
71610;SDS011;59459;51.172;6.682;2023-05-07T00:45:14;6.28;;;2.85;;
71610;SDS011;59459;51.172;6.682;2023-05-07T00:47:39;6.30;;;2.93;;
71610;SDS011;59459;51.172;6.682;2023-05-07T00:50:05;6.15;;;3.13;;
71610;SDS011;59459;51.172;6.682;2023-05-07T00:52:30;6.63;;;3.00;;
71610;SDS011;59459;51.172;6.682;2023-05-07T00:54:56;6.67;;;3.07;;
71610;SDS011;59459;51.172;6.682;2023-05-07T00:57:21;7.80;;;3.13;;
71610;SDS011;59459;51.172;6.682;2023-05-07T00:59:48;5.47;;;3.00;;
71610;SDS011;59459;51.172;6.682;2023-05-07T01:02:13;6.10;;;2.83;;
71610;SDS011;59459;51.172;6.682;2023-05-07T01:04:38;5.70;;;2.67;;
71610;SDS011;59459;51.172;6.682;2023-05-07T01:07:04;5.83;;;2.80;;
71610;SDS011;59459;51.172;6.682;2023-05-07T01:09:30;6.53;;;2.90;;
71610;SDS011;59459;51.172;6.682;2023-05-07T01:11:56;6.47;;;3.30;;
71610;SDS011;59459;51.172;6.682;2023-05-07T01:14:22;6.53;;;3.22;;
71610;SDS011;59459;51.172;6.682;2023-05-07T01:16:48;6.17;;;2.67;;
71610;SDS011;59459;51.172;6.682;2023-05-07T01:19:13;8.57;;;3.23;;
71610;SDS011;59459;51.172;6.682;2023-05-07T01:21:41;6.00;;;3.15;;
71610;SDS011;59459;51.172;6.682;2023-05-07T01:24:08;6.80;;;3.10;;
71610;SDS011;59459;51.172;6.682;2023-05-07T01:26:34;6.57;;;3.43;;
71610;SDS011;59459;51.172;6.682;2023-05-07T01:28:59;5.70;;;2.73;;
71610;SDS011;59459;51.172;6.682;2023-05-07T01:31:25;6.63;;;3.07;;
71610;SDS011;59459;51.172;6.682;2023-05-07T01:33:50;7.60;;;3.33;;
71610;SDS011;59459;51.172;6.682;2023-05-07T01:36:17;6.73;;;3.13;;
71610;SDS011;59459;51.172;6.682;2023-05-07T01:38:42;7.65;;;3.15;;
71610;SDS011;59459;51.172;6.682;2023-05-07T01:41:08;7.72;;;3.17;;
71610;SDS011;59459;51.172;6.682;2023-05-07T01:43:33;5.70;;;2.90;;
71610;SDS011;59459;51.172;6.682;2023-05-07T01:45:58;7.33;;;3.50;;
71610;SDS011;59459;51.172;6.682;2023-05-07T01:48:24;7.33;;;3.60;;
71610;SDS011;59459;51.172;6.682;2023-05-07T01:50:49;6.27;;;3.23;;
71610;SDS011;59459;51.172;6.682;2023-05-07T01:53:15;5.77;;;2.90;;
71610;SDS011;59459;51.172;6.682;2023-05-07T01:55:40;6.97;;;3.50;;
71610;SDS011;59459;51.172;6.682;2023-05-07T01:58:05;6.50;;;3.10;;
71610;SDS011;59459;51.172;6.682;2023-05-07T02:00:31;7.20;;;3.33;;
71610;SDS011;59459;51.172;6.682;2023-05-07T02:02:56;6.68;;;3.70;;
71610;SDS011;59459;51.172;6.682;2023-05-07T02:05:21;8.17;;;4.10;;
71610;SDS011;59459;51.172;6.682;2023-05-07T02:07:47;7.27;;;3.33;;
71610;SDS011;59459;51.172;6.682;2023-05-07T02:10:12;6.70;;;3.30;;
71610;SDS011;59459;51.172;6.682;2023-05-07T02:12:37;7.63;;;3.40;;
71610;SDS011;59459;51.172;6.682;2023-05-07T02:15:02;6.13;;;3.07;;
71610;SDS011;59459;51.172;6.682;2023-05-07T02:17:27;6.03;;;3.17;;
71610;SDS011;59459;51.172;6.682;2023-05-07T02:19:56;7.63;;;3.38;;
71610;SDS011;59459;51.172;6.682;2023-05-07T02:22:21;6.77;;;3.30;;
71610;SDS011;59459;51.172;6.682;2023-05-07T02:24:47;5.40;;;2.80;;
71610;SDS011;59459;51.172;6.682;2023-05-07T02:27:12;10.07;;;3.37;;
71610;SDS011;59459;51.172;6.682;2023-05-07T02:29:37;5.87;;;2.73;;
71610;SDS011;59459;51.172;6.682;2023-05-07T02:32:02;7.00;;;3.17;;
71610;SDS011;59459;51.172;6.682;2023-05-07T02:34:28;6.93;;;2.63;;
71610;SDS011;59459;51.172;6.682;2023-05-07T02:36:53;7.13;;;3.67;;
71610;SDS011;59459;51.172;6.682;2023-05-07T02:39:18;6.10;;;2.90;;
71610;SDS011;59459;51.172;6.682;2023-05-07T02:41:43;6.60;;;3.03;;
71610;SDS011;59459;51.172;6.682;2023-05-07T02:44:09;7.17;;;2.97;;
71610;SDS011;59459;51.172;6.682;2023-05-07T02:46:34;6.90;;;3.42;;
71610;SDS011;59459;51.172;6.682;2023-05-07T02:48:59;8.20;;;3.00;;
71610;SDS011;59459;51.172;6.682;2023-05-07T02:51:25;6.27;;;3.53;;
71610;SDS011;59459;51.172;6.682;2023-05-07T02:53:51;6.70;;;3.05;;
71610;SDS011;59459;51.172;6.682;2023-05-07T02:56:16;6.97;;;3.53;;
71610;SDS011;59459;51.172;6.682;2023-05-07T02:58:41;7.57;;;2.87;;
71610;SDS011;59459;51.172;6.682;2023-05-07T03:01:09;8.77;;;3.70;;
71610;SDS011;59459;51.172;6.682;2023-05-07T03:03:35;7.63;;;3.15;;
71610;SDS011;59459;51.172;6.682;2023-05-07T03:06:00;6.70;;;3.20;;
71610;SDS011;59459;51.172;6.682;2023-05-07T03:08:26;7.90;;;3.57;;
71610;SDS011;59459;51.172;6.682;2023-05-07T03:10:51;5.70;;;3.03;;
71610;SDS011;59459;51.172;6.682;2023-05-07T03:13:16;6.93;;;3.13;;
71610;SDS011;59459;51.172;6.682;2023-05-07T03:15:42;6.20;;;2.65;;
71610;SDS011;59459;51.172;6.682;2023-05-07T03:18:08;5.40;;;2.50;;
71610;SDS011;59459;51.172;6.682;2023-05-07T03:20:33;5.30;;;2.63;;
71610;SDS011;59459;51.172;6.682;2023-05-07T03:22:58;6.70;;;2.90;;
71610;SDS011;59459;51.172;6.682;2023-05-07T03:25:23;5.57;;;2.67;;
71610;SDS011;59459;51.172;6.682;2023-05-07T03:27:49;5.23;;;2.30;;
71610;SDS011;59459;51.172;6.682;2023-05-07T03:30:14;5.55;;;2.45;;
71610;SDS011;59459;51.172;6.682;2023-05-07T03:32:39;5.53;;;2.53;;
71610;SDS011;59459;51.172;6.682;2023-05-07T03:35:05;5.60;;;2.67;;
71610;SDS011;59459;51.172;6.682;2023-05-07T03:37:30;5.60;;;2.70;;
71610;SDS011;59459;51.172;6.682;2023-05-07T03:39:55;5.60;;;2.73;;
71610;SDS011;59459;51.172;6.682;2023-05-07T03:42:20;5.83;;;2.77;;
71610;SDS011;59459;51.172;6.682;2023-05-07T03:44:46;5.00;;;2.47;;
71610;SDS011;59459;51.172;6.682;2023-05-07T03:47:11;6.72;;;2.53;;
71610;SDS011;59459;51.172;6.682;2023-05-07T03:49:38;5.60;;;2.33;;
71610;SDS011;59459;51.172;6.682;2023-05-07T03:52:03;5.23;;;2.23;;
71610;SDS011;59459;51.172;6.682;2023-05-07T03:54:29;5.00;;;2.28;;
71610;SDS011;59459;51.172;6.682;2023-05-07T03:56:55;7.43;;;2.57;;
71610;SDS011;59459;51.172;6.682;2023-05-07T03:59:20;7.17;;;2.77;;
71610;SDS011;59459;51.172;6.682;2023-05-07T04:01:45;6.33;;;2.70;;
71610;SDS011;59459;51.172;6.682;2023-05-07T04:04:10;6.15;;;2.28;;
71610;SDS011;59459;51.172;6.682;2023-05-07T04:06:36;5.77;;;2.80;;
71610;SDS011;59459;51.172;6.682;2023-05-07T04:09:01;5.33;;;2.50;;
71610;SDS011;59459;51.172;6.682;2023-05-07T04:11:26;5.10;;;2.60;;
71610;SDS011;59459;51.172;6.682;2023-05-07T04:13:51;5.87;;;2.70;;
71610;SDS011;59459;51.172;6.682;2023-05-07T04:16:17;5.60;;;2.43;;
71610;SDS011;59459;51.172;6.682;2023-05-07T04:18:42;6.17;;;3.00;;
71610;SDS011;59459;51.172;6.682;2023-05-07T04:21:14;5.93;;;2.77;;
71610;SDS011;59459;51.172;6.682;2023-05-07T04:23:39;5.53;;;2.80;;
71610;SDS011;59459;51.172;6.682;2023-05-07T04:26:04;6.43;;;2.90;;
71610;SDS011;59459;51.172;6.682;2023-05-07T04:28:30;6.07;;;2.63;;
71610;SDS011;59459;51.172;6.682;2023-05-07T04:30:55;5.53;;;2.60;;
71610;SDS011;59459;51.172;6.682;2023-05-07T04:33:20;6.50;;;3.37;;
71610;SDS011;59459;51.172;6.682;2023-05-07T04:35:45;6.17;;;2.80;;
71610;SDS011;59459;51.172;6.682;2023-05-07T04:38:11;5.80;;;3.13;;
71610;SDS011;59459;51.172;6.682;2023-05-07T04:40:36;5.77;;;2.47;;
71610;SDS011;59459;51.172;6.682;2023-05-07T04:43:02;6.82;;;3.03;;
71610;SDS011;59459;51.172;6.682;2023-05-07T04:45:27;6.70;;;2.90;;
71610;SDS011;59459;51.172;6.682;2023-05-07T04:47:52;7.43;;;3.13;;
71610;SDS011;59459;51.172;6.682;2023-05-07T04:50:17;9.43;;;3.60;;
71610;SDS011;59459;51.172;6.682;2023-05-07T04:52:44;8.70;;;3.40;;
71610;SDS011;59459;51.172;6.682;2023-05-07T04:55:10;6.73;;;3.50;;
71610;SDS011;59459;51.172;6.682;2023-05-07T04:57:35;5.80;;;2.57;;
71610;SDS011;59459;51.172;6.682;2023-05-07T05:00:00;6.87;;;3.00;;
71610;SDS011;59459;51.172;6.682;2023-05-07T05:02:25;8.03;;;2.60;;
71610;SDS011;59459;51.172;6.682;2023-05-07T05:04:51;6.80;;;2.83;;
71610;SDS011;59459;51.172;6.682;2023-05-07T05:07:16;7.63;;;3.40;;
71610;SDS011;59459;51.172;6.682;2023-05-07T05:09:41;5.53;;;2.50;;
71610;SDS011;59459;51.172;6.682;2023-05-07T05:12:06;6.00;;;2.50;;
71610;SDS011;59459;51.172;6.682;2023-05-07T05:14:32;5.90;;;3.03;;
71610;SDS011;59459;51.172;6.682;2023-05-07T05:16:57;6.23;;;2.87;;
71610;SDS011;59459;51.172;6.682;2023-05-07T05:19:22;6.50;;;2.87;;
71610;SDS011;59459;51.172;6.682;2023-05-07T05:21:48;6.27;;;2.97;;
71610;SDS011;59459;51.172;6.682;2023-05-07T05:24:13;6.37;;;2.33;;
71610;SDS011;59459;51.172;6.682;2023-05-07T05:26:38;6.43;;;2.63;;
71610;SDS011;59459;51.172;6.682;2023-05-07T05:29:03;4.03;;;2.30;;
71610;SDS011;59459;51.172;6.682;2023-05-07T05:31:28;5.83;;;2.47;;
71610;SDS011;59459;51.172;6.682;2023-05-07T05:33:54;5.53;;;2.30;;
71610;SDS011;59459;51.172;6.682;2023-05-07T05:36:19;7.60;;;3.57;;
71610;SDS011;59459;51.172;6.682;2023-05-07T05:38:44;6.80;;;3.23;;
71610;SDS011;59459;51.172;6.682;2023-05-07T05:41:09;8.53;;;3.77;;
71610;SDS011;59459;51.172;6.682;2023-05-07T05:43:35;6.47;;;3.33;;
71610;SDS011;59459;51.172;6.682;2023-05-07T05:46:00;7.57;;;3.70;;
71610;SDS011;59459;51.172;6.682;2023-05-07T05:48:25;7.83;;;3.83;;
71610;SDS011;59459;51.172;6.682;2023-05-07T05:50:50;8.17;;;3.90;;
71610;SDS011;59459;51.172;6.682;2023-05-07T05:53:16;8.13;;;3.60;;
71610;SDS011;59459;51.172;6.682;2023-05-07T05:55:41;6.80;;;3.70;;
71610;SDS011;59459;51.172;6.682;2023-05-07T05:58:06;6.80;;;3.00;;
71610;SDS011;59459;51.172;6.682;2023-05-07T06:00:32;6.20;;;2.60;;
71610;SDS011;59459;51.172;6.682;2023-05-07T06:02:57;5.60;;;2.40;;
71610;SDS011;59459;51.172;6.682;2023-05-07T06:05:22;4.80;;;2.80;;
71610;SDS011;59459;51.172;6.682;2023-05-07T06:07:47;3.90;;;2.10;;
71610;SDS011;59459;51.172;6.682;2023-05-07T06:10:12;6.33;;;2.37;;
71610;SDS011;59459;51.172;6.682;2023-05-07T06:12:38;6.37;;;2.67;;
71610;SDS011;59459;51.172;6.682;2023-05-07T06:15:03;5.07;;;2.10;;
71610;SDS011;59459;51.172;6.682;2023-05-07T06:17:28;6.13;;;2.40;;
71610;SDS011;59459;51.172;6.682;2023-05-07T06:19:54;5.50;;;2.50;;
71610;SDS011;59459;51.172;6.682;2023-05-07T06:22:19;5.63;;;2.40;;
71610;SDS011;59459;51.172;6.682;2023-05-07T06:24:44;5.73;;;2.30;;
71610;SDS011;59459;51.172;6.682;2023-05-07T06:27:09;4.73;;;2.23;;
71610;SDS011;59459;51.172;6.682;2023-05-07T06:29:35;4.53;;;2.10;;
71610;SDS011;59459;51.172;6.682;2023-05-07T06:32:09;4.63;;;2.03;;
71610;SDS011;59459;51.172;6.682;2023-05-07T06:34:35;5.15;;;2.35;;
71610;SDS011;59459;51.172;6.682;2023-05-07T06:37:00;5.87;;;2.43;;
71610;SDS011;59459;51.172;6.682;2023-05-07T06:39:26;5.65;;;2.67;;
71610;SDS011;59459;51.172;6.682;2023-05-07T06:41:51;7.60;;;2.40;;
71610;SDS011;59459;51.172;6.682;2023-05-07T06:44:16;5.17;;;2.63;;
71610;SDS011;59459;51.172;6.682;2023-05-07T06:46:41;6.10;;;2.40;;
71610;SDS011;59459;51.172;6.682;2023-05-07T06:49:07;5.43;;;2.33;;
71610;SDS011;59459;51.172;6.682;2023-05-07T06:51:32;6.00;;;2.30;;
71610;SDS011;59459;51.172;6.682;2023-05-07T06:53:57;9.00;;;2.50;;
71610;SDS011;59459;51.172;6.682;2023-05-07T06:56:22;4.90;;;2.47;;
71610;SDS011;59459;51.172;6.682;2023-05-07T06:58:48;5.17;;;2.20;;
71610;SDS011;59459;51.172;6.682;2023-05-07T07:01:13;4.37;;;2.00;;
71610;SDS011;59459;51.172;6.682;2023-05-07T07:03:38;4.20;;;2.23;;
71610;SDS011;59459;51.172;6.682;2023-05-07T07:06:04;4.67;;;2.37;;
71610;SDS011;59459;51.172;6.682;2023-05-07T07:08:29;4.60;;;2.17;;
71610;SDS011;59459;51.172;6.682;2023-05-07T07:10:54;4.97;;;2.10;;
71610;SDS011;59459;51.172;6.682;2023-05-07T07:13:19;5.67;;;2.40;;
71610;SDS011;59459;51.172;6.682;2023-05-07T07:15:44;5.57;;;2.13;;
71610;SDS011;59459;51.172;6.682;2023-05-07T07:18:10;6.13;;;2.70;;
71610;SDS011;59459;51.172;6.682;2023-05-07T07:20:35;3.87;;;1.80;;
71610;SDS011;59459;51.172;6.682;2023-05-07T07:23:00;5.17;;;2.23;;
71610;SDS011;59459;51.172;6.682;2023-05-07T07:25:26;4.13;;;2.20;;
71610;SDS011;59459;51.172;6.682;2023-05-07T07:27:51;4.60;;;2.20;;
71610;SDS011;59459;51.172;6.682;2023-05-07T07:30:16;4.50;;;1.93;;
71610;SDS011;59459;51.172;6.682;2023-05-07T07:32:41;4.70;;;2.20;;
71610;SDS011;59459;51.172;6.682;2023-05-07T07:35:07;3.88;;;2.30;;
71610;SDS011;59459;51.172;6.682;2023-05-07T07:37:33;6.63;;;2.97;;
71610;SDS011;59459;51.172;6.682;2023-05-07T07:39:58;6.37;;;2.53;;
71610;SDS011;59459;51.172;6.682;2023-05-07T07:42:23;6.22;;;2.95;;
71610;SDS011;59459;51.172;6.682;2023-05-07T07:44:48;4.77;;;2.77;;
71610;SDS011;59459;51.172;6.682;2023-05-07T07:47:14;4.97;;;2.60;;
71610;SDS011;59459;51.172;6.682;2023-05-07T07:49:39;5.87;;;2.87;;
71610;SDS011;59459;51.172;6.682;2023-05-07T07:52:04;5.97;;;3.03;;
71610;SDS011;59459;51.172;6.682;2023-05-07T07:54:30;5.63;;;2.80;;
71610;SDS011;59459;51.172;6.682;2023-05-07T07:56:55;5.53;;;3.20;;
71610;SDS011;59459;51.172;6.682;2023-05-07T07:59:20;5.67;;;2.93;;
71610;SDS011;59459;51.172;6.682;2023-05-07T08:01:45;4.33;;;2.70;;
71610;SDS011;59459;51.172;6.682;2023-05-07T08:04:13;6.90;;;3.10;;
71610;SDS011;59459;51.172;6.682;2023-05-07T08:06:38;5.90;;;3.10;;
71610;SDS011;59459;51.172;6.682;2023-05-07T08:09:03;6.60;;;2.80;;
71610;SDS011;59459;51.172;6.682;2023-05-07T08:11:28;4.73;;;2.10;;
71610;SDS011;59459;51.172;6.682;2023-05-07T08:13:54;3.40;;;2.00;;
71610;SDS011;59459;51.172;6.682;2023-05-07T08:16:19;3.75;;;1.83;;
71610;SDS011;59459;51.172;6.682;2023-05-07T08:18:45;4.87;;;2.37;;
71610;SDS011;59459;51.172;6.682;2023-05-07T08:21:10;3.90;;;2.20;;
71610;SDS011;59459;51.172;6.682;2023-05-07T08:23:35;3.17;;;1.83;;
71610;SDS011;59459;51.172;6.682;2023-05-07T08:26:00;6.17;;;2.20;;
71610;SDS011;59459;51.172;6.682;2023-05-07T08:28:26;5.57;;;2.33;;
71610;SDS011;59459;51.172;6.682;2023-05-07T08:30:53;4.10;;;2.53;;
71610;SDS011;59459;51.172;6.682;2023-05-07T08:33:18;4.97;;;2.40;;
71610;SDS011;59459;51.172;6.682;2023-05-07T08:35:43;8.03;;;2.40;;
71610;SDS011;59459;51.172;6.682;2023-05-07T08:38:09;4.57;;;2.37;;
71610;SDS011;59459;51.172;6.682;2023-05-07T08:40:36;5.17;;;2.57;;
71610;SDS011;59459;51.172;6.682;2023-05-07T08:43:02;6.50;;;2.30;;
71610;SDS011;59459;51.172;6.682;2023-05-07T08:45:27;4.93;;;2.22;;
71610;SDS011;59459;51.172;6.682;2023-05-07T08:47:58;3.93;;;2.20;;
71610;SDS011;59459;51.172;6.682;2023-05-07T08:50:24;4.47;;;2.10;;
71610;SDS011;59459;51.172;6.682;2023-05-07T08:52:49;5.17;;;2.50;;
71610;SDS011;59459;51.172;6.682;2023-05-07T08:55:15;4.10;;;2.03;;
71610;SDS011;59459;51.172;6.682;2023-05-07T08:57:40;5.72;;;2.30;;
71610;SDS011;59459;51.172;6.682;2023-05-07T09:00:05;4.47;;;2.43;;
71610;SDS011;59459;51.172;6.682;2023-05-07T09:02:32;5.47;;;2.00;;
71610;SDS011;59459;51.172;6.682;2023-05-07T09:04:57;4.65;;;1.83;;
71610;SDS011;59459;51.172;6.682;2023-05-07T09:07:22;4.70;;;1.90;;
71610;SDS011;59459;51.172;6.682;2023-05-07T09:09:48;5.83;;;2.07;;
71610;SDS011;59459;51.172;6.682;2023-05-07T09:12:14;3.80;;;2.00;;
71610;SDS011;59459;51.172;6.682;2023-05-07T09:14:39;4.23;;;1.77;;
71610;SDS011;59459;51.172;6.682;2023-05-07T09:17:04;4.67;;;2.10;;
71610;SDS011;59459;51.172;6.682;2023-05-07T09:19:30;4.87;;;2.17;;
71610;SDS011;59459;51.172;6.682;2023-05-07T09:21:58;4.37;;;2.23;;
71610;SDS011;59459;51.172;6.682;2023-05-07T09:24:24;3.83;;;1.90;;
71610;SDS011;59459;51.172;6.682;2023-05-07T09:26:50;5.20;;;1.50;;
71610;SDS011;59459;51.172;6.682;2023-05-07T09:29:15;3.20;;;1.40;;
71610;SDS011;59459;51.172;6.682;2023-05-07T09:31:40;4.03;;;1.83;;
71610;SDS011;59459;51.172;6.682;2023-05-07T09:34:05;2.90;;;1.37;;
71610;SDS011;59459;51.172;6.682;2023-05-07T09:36:33;3.72;;;1.90;;
71610;SDS011;59459;51.172;6.682;2023-05-07T09:38:59;3.90;;;1.50;;
71610;SDS011;59459;51.172;6.682;2023-05-07T09:41:24;3.58;;;1.60;;
71610;SDS011;59459;51.172;6.682;2023-05-07T09:43:53;2.60;;;1.40;;
71610;SDS011;59459;51.172;6.682;2023-05-07T09:46:18;3.13;;;1.45;;
71610;SDS011;59459;51.172;6.682;2023-05-07T09:48:49;1.98;;;1.35;;
71610;SDS011;59459;51.172;6.682;2023-05-07T09:53:40;2.60;;;1.20;;
71610;SDS011;59459;51.172;6.682;2023-05-07T09:56:05;3.13;;;1.83;;
71610;SDS011;59459;51.172;6.682;2023-05-07T09:58:31;4.47;;;1.87;;
71610;SDS011;59459;51.172;6.682;2023-05-07T10:00:57;3.20;;;1.63;;
71610;SDS011;59459;51.172;6.682;2023-05-07T10:03:22;4.20;;;1.50;;
71610;SDS011;59459;51.172;6.682;2023-05-07T10:05:49;2.90;;;1.42;;
71610;SDS011;59459;51.172;6.682;2023-05-07T10:08:15;2.60;;;1.35;;
71610;SDS011;59459;51.172;6.682;2023-05-07T10:10:41;4.40;;;2.03;;
71610;SDS011;59459;51.172;6.682;2023-05-07T10:13:07;2.67;;;1.50;;
71610;SDS011;59459;51.172;6.682;2023-05-07T10:15:35;4.78;;;2.28;;
71610;SDS011;59459;51.172;6.682;2023-05-07T10:18:01;3.93;;;2.23;;
71610;SDS011;59459;51.172;6.682;2023-05-07T10:20:27;4.47;;;2.17;;
71610;SDS011;59459;51.172;6.682;2023-05-07T10:22:52;4.00;;;2.17;;
71610;SDS011;59459;51.172;6.682;2023-05-07T10:25:25;4.43;;;2.10;;
71610;SDS011;59459;51.172;6.682;2023-05-07T10:27:50;4.50;;;2.00;;
71610;SDS011;59459;51.172;6.682;2023-05-07T10:30:38;6.97;;;2.30;;
71610;SDS011;59459;51.172;6.682;2023-05-07T10:33:05;3.63;;;1.77;;
71610;SDS011;59459;51.172;6.682;2023-05-07T10:35:32;3.83;;;1.90;;
71610;SDS011;59459;51.172;6.682;2023-05-07T10:38:01;3.13;;;1.70;;
71610;SDS011;59459;51.172;6.682;2023-05-07T10:40:26;3.70;;;1.93;;
71610;SDS011;59459;51.172;6.682;2023-05-07T10:45:20;3.88;;;1.77;;
71610;SDS011;59459;51.172;6.682;2023-05-07T10:50:29;4.35;;;1.70;;
71610;SDS011;59459;51.172;6.682;2023-05-07T10:55:39;2.93;;;1.60;;
71610;SDS011;59459;51.172;6.682;2023-05-07T10:58:23;3.65;;;1.60;;
71610;SDS011;59459;51.172;6.682;2023-05-07T11:00:50;3.03;;;1.80;;
71610;SDS011;59459;51.172;6.682;2023-05-07T11:03:16;2.90;;;1.75;;
71610;SDS011;59459;51.172;6.682;2023-05-07T11:05:41;2.70;;;1.50;;
71610;SDS011;59459;51.172;6.682;2023-05-07T11:08:07;2.90;;;1.40;;
71610;SDS011;59459;51.172;6.682;2023-05-07T11:10:49;4.03;;;2.25;;
71610;SDS011;59459;51.172;6.682;2023-05-07T11:13:15;3.63;;;1.58;;
71610;SDS011;59459;51.172;6.682;2023-05-07T11:15:41;4.20;;;1.73;;
71610;SDS011;59459;51.172;6.682;2023-05-07T11:18:08;4.05;;;1.77;;
71610;SDS011;59459;51.172;6.682;2023-05-07T11:20:44;2.93;;;1.20;;
71610;SDS011;59459;51.172;6.682;2023-05-07T11:25:57;2.75;;;1.23;;
71610;SDS011;59459;51.172;6.682;2023-05-07T11:28:23;3.92;;;1.35;;
71610;SDS011;59459;51.172;6.682;2023-05-07T11:30:48;1.70;;;0.90;;
71610;SDS011;59459;51.172;6.682;2023-05-07T11:33:16;2.60;;;1.20;;
71610;SDS011;59459;51.172;6.682;2023-05-07T11:35:42;2.92;;;1.40;;
71610;SDS011;59459;51.172;6.682;2023-05-07T11:38:07;2.40;;;1.37;;
71610;SDS011;59459;51.172;6.682;2023-05-07T11:40:32;4.10;;;1.70;;
71610;SDS011;59459;51.172;6.682;2023-05-07T11:42:57;2.73;;;1.30;;
71610;SDS011;59459;51.172;6.682;2023-05-07T11:45:23;3.07;;;1.63;;
71610;SDS011;59459;51.172;6.682;2023-05-07T11:47:51;2.60;;;1.50;;
71610;SDS011;59459;51.172;6.682;2023-05-07T11:50:17;2.93;;;1.50;;
71610;SDS011;59459;51.172;6.682;2023-05-07T11:52:49;2.70;;;1.20;;
71610;SDS011;59459;51.172;6.682;2023-05-07T11:55:15;3.20;;;1.40;;
71610;SDS011;59459;51.172;6.682;2023-05-07T11:57:43;10.82;;;1.90;;
71610;SDS011;59459;51.172;6.682;2023-05-07T12:00:09;4.78;;;1.35;;
71610;SDS011;59459;51.172;6.682;2023-05-07T12:02:35;2.67;;;1.20;;
71610;SDS011;59459;51.172;6.682;2023-05-07T12:05:00;3.57;;;1.37;;
71610;SDS011;59459;51.172;6.682;2023-05-07T12:07:26;5.50;;;1.83;;
71610;SDS011;59459;51.172;6.682;2023-05-07T12:09:51;3.63;;;1.47;;
71610;SDS011;59459;51.172;6.682;2023-05-07T12:12:16;3.23;;;1.30;;
71610;SDS011;59459;51.172;6.682;2023-05-07T12:14:43;4.07;;;1.65;;
71610;SDS011;59459;51.172;6.682;2023-05-07T12:17:09;3.20;;;1.60;;
71610;SDS011;59459;51.172;6.682;2023-05-07T12:19:35;2.60;;;1.37;;
71610;SDS011;59459;51.172;6.682;2023-05-07T12:22:01;4.53;;;1.63;;
71610;SDS011;59459;51.172;6.682;2023-05-07T12:24:26;2.77;;;1.20;;
71610;SDS011;59459;51.172;6.682;2023-05-07T12:26:51;2.47;;;1.33;;
71610;SDS011;59459;51.172;6.682;2023-05-07T12:29:16;3.33;;;1.37;;
71610;SDS011;59459;51.172;6.682;2023-05-07T12:31:42;2.27;;;1.17;;
71610;SDS011;59459;51.172;6.682;2023-05-07T12:34:07;2.63;;;1.60;;
71610;SDS011;59459;51.172;6.682;2023-05-07T12:36:38;2.53;;;1.40;;
71610;SDS011;59459;51.172;6.682;2023-05-07T12:39:05;3.47;;;1.42;;
71610;SDS011;59459;51.172;6.682;2023-05-07T12:41:30;4.53;;;1.77;;
71610;SDS011;59459;51.172;6.682;2023-05-07T12:44:00;2.17;;;1.17;;
71610;SDS011;59459;51.172;6.682;2023-05-07T12:46:25;3.70;;;1.60;;
71610;SDS011;59459;51.172;6.682;2023-05-07T12:48:51;2.43;;;1.27;;
71610;SDS011;59459;51.172;6.682;2023-05-07T12:51:17;2.75;;;1.55;;
71610;SDS011;59459;51.172;6.682;2023-05-07T12:53:43;4.32;;;1.45;;
71610;SDS011;59459;51.172;6.682;2023-05-07T12:56:08;3.60;;;1.50;;
71610;SDS011;59459;51.172;6.682;2023-05-07T12:58:33;2.60;;;1.40;;
71610;SDS011;59459;51.172;6.682;2023-05-07T13:01:00;3.58;;;1.98;;
71610;SDS011;59459;51.172;6.682;2023-05-07T13:03:26;3.17;;;1.55;;
71610;SDS011;59459;51.172;6.682;2023-05-07T13:05:52;2.47;;;1.60;;
71610;SDS011;59459;51.172;6.682;2023-05-07T13:08:27;2.83;;;1.38;;
71610;SDS011;59459;51.172;6.682;2023-05-07T13:10:52;6.82;;;1.65;;
71610;SDS011;59459;51.172;6.682;2023-05-07T13:13:18;2.80;;;1.70;;
71610;SDS011;59459;51.172;6.682;2023-05-07T13:15:43;4.40;;;1.73;;
71610;SDS011;59459;51.172;6.682;2023-05-07T13:18:09;3.57;;;1.90;;
71610;SDS011;59459;51.172;6.682;2023-05-07T13:20:36;3.17;;;1.35;;
71610;SDS011;59459;51.172;6.682;2023-05-07T13:23:01;2.37;;;1.20;;
71610;SDS011;59459;51.172;6.682;2023-05-07T13:25:27;2.83;;;1.48;;
71610;SDS011;59459;51.172;6.682;2023-05-07T13:27:52;3.53;;;1.53;;
71610;SDS011;59459;51.172;6.682;2023-05-07T13:30:17;4.03;;;1.40;;
71610;SDS011;59459;51.172;6.682;2023-05-07T13:32:42;2.90;;;1.30;;
71610;SDS011;59459;51.172;6.682;2023-05-07T13:35:08;2.70;;;1.23;;
71610;SDS011;59459;51.172;6.682;2023-05-07T13:37:33;4.37;;;1.53;;
71610;SDS011;59459;51.172;6.682;2023-05-07T13:39:58;2.77;;;1.30;;
71610;SDS011;59459;51.172;6.682;2023-05-07T13:42:24;3.00;;;1.30;;
71610;SDS011;59459;51.172;6.682;2023-05-07T13:44:49;4.03;;;1.93;;
71610;SDS011;59459;51.172;6.682;2023-05-07T13:47:14;3.50;;;1.20;;
71610;SDS011;59459;51.172;6.682;2023-05-07T13:49:39;5.33;;;1.93;;
71610;SDS011;59459;51.172;6.682;2023-05-07T13:52:04;3.43;;;1.50;;
71610;SDS011;59459;51.172;6.682;2023-05-07T13:54:30;2.83;;;1.50;;
71610;SDS011;59459;51.172;6.682;2023-05-07T13:56:55;4.30;;;1.50;;
71610;SDS011;59459;51.172;6.682;2023-05-07T13:59:20;2.40;;;1.00;;
71610;SDS011;59459;51.172;6.682;2023-05-07T14:01:45;3.73;;;1.43;;
71610;SDS011;59459;51.172;6.682;2023-05-07T14:04:12;3.30;;;1.48;;
71610;SDS011;59459;51.172;6.682;2023-05-07T14:06:37;3.20;;;1.37;;
71610;SDS011;59459;51.172;6.682;2023-05-07T14:09:02;4.27;;;1.67;;
71610;SDS011;59459;51.172;6.682;2023-05-07T14:11:27;3.83;;;1.60;;
71610;SDS011;59459;51.172;6.682;2023-05-07T14:13:53;3.13;;;1.40;;
71610;SDS011;59459;51.172;6.682;2023-05-07T14:16:18;2.63;;;1.50;;
71610;SDS011;59459;51.172;6.682;2023-05-07T14:18:43;2.10;;;1.27;;
71610;SDS011;59459;51.172;6.682;2023-05-07T14:21:08;3.77;;;1.57;;
71610;SDS011;59459;51.172;6.682;2023-05-07T14:23:34;4.03;;;1.95;;
71610;SDS011;59459;51.172;6.682;2023-05-07T14:26:00;3.87;;;2.07;;
71610;SDS011;59459;51.172;6.682;2023-05-07T14:28:25;4.00;;;1.87;;
71610;SDS011;59459;51.172;6.682;2023-05-07T14:30:50;3.80;;;1.83;;
71610;SDS011;59459;51.172;6.682;2023-05-07T14:33:15;4.40;;;2.07;;
71610;SDS011;59459;51.172;6.682;2023-05-07T14:35:41;3.20;;;1.60;;
71610;SDS011;59459;51.172;6.682;2023-05-07T14:38:06;5.23;;;2.10;;
71610;SDS011;59459;51.172;6.682;2023-05-07T14:40:31;4.40;;;1.80;;
71610;SDS011;59459;51.172;6.682;2023-05-07T14:42:56;3.43;;;1.83;;
71610;SDS011;59459;51.172;6.682;2023-05-07T14:45:22;3.58;;;2.00;;
71610;SDS011;59459;51.172;6.682;2023-05-07T14:47:48;4.57;;;2.20;;
71610;SDS011;59459;51.172;6.682;2023-05-07T14:50:13;5.30;;;2.20;;
71610;SDS011;59459;51.172;6.682;2023-05-07T14:52:38;7.37;;;2.37;;